<?xml version="1.0" encoding="UTF-8" standalone="no" ?><gpx xmlns="http://www.topografix.com/GPX/1/1" xmlns:gpxx="http://www.garmin.com/xmlschemas/GpxExtensions/v3" xmlns:wptx1="http://www.garmin.com/xmlschemas/WaypointExtension/v1" xmlns:gpxtpx="http://www.garmin.com/xmlschemas/TrackPointExtension/v1" creator="GuideVTT.com" version="1.1" xmlns:xsi="http://www.w3.org/2001/XMLSchema-instance" xsi:schemaLocation="http://www.topografix.com/GPX/1/1 http://www.topografix.com/GPX/1/1/gpx.xsd http://www.garmin.com/xmlschemas/GpxExtensions/v3 http://www8.garmin.com/xmlschemas/GpxExtensionsv3.xsd http://www.garmin.com/xmlschemas/WaypointExtension/v1 http://www8.garmin.com/xmlschemas/WaypointExtensionv1.xsd http://www.garmin.com/xmlschemas/TrackPointExtension/v1 http://www.garmin.com/xmlschemas/TrackPointExtensionv1.xsd">
<metadata><link href="http://www.garmin.com"><text>Garmin International</text></link><time>2013-06-22T15:13:50Z</time></metadata>
<trk><name>parcours1.gpx</name><extensions><gpxx:TrackExtension><gpxx:DisplayColor>Cyan</gpxx:DisplayColor></gpxx:TrackExtension></extensions><trkseg>
<trkpt lat="46.21001670" lon="7.25633330"><ele></ele><time>2014-5-13T7:9:4Z</time></trkpt>
<trkpt lat="46.21060000" lon="7.25536670"><ele></ele><time>2014-5-13T7:9:7Z</time></trkpt>
<trkpt lat="46.21116670" lon="7.25375000"><ele></ele><time>2014-5-13T7:9:10Z</time></trkpt>
<trkpt lat="46.21168330" lon="7.25380000"><ele></ele><time>2014-5-13T7:9:13Z</time></trkpt>
<trkpt lat="46.21210000" lon="7.25420000"><ele></ele><time>2014-5-13T7:9:16Z</time></trkpt>
<trkpt lat="46.21213330" lon="7.25403330"><ele></ele><time>2014-5-13T7:9:19Z</time></trkpt>
<trkpt lat="46.21141670" lon="7.25306670"><ele></ele><time>2014-5-13T7:9:22Z</time></trkpt>
<trkpt lat="46.21068330" lon="7.25258330"><ele></ele><time>2014-5-13T7:9:25Z</time></trkpt>
<trkpt lat="46.21021670" lon="7.25185000"><ele></ele><time>2014-5-13T7:9:28Z</time></trkpt>
<trkpt lat="46.20938330" lon="7.24905000"><ele></ele><time>2014-5-13T7:9:31Z</time></trkpt>
<trkpt lat="46.20888330" lon="7.24840000"><ele></ele><time>2014-5-13T7:9:34Z</time></trkpt>
<trkpt lat="46.20896670" lon="7.24830000"><ele></ele><time>2014-5-13T7:9:37Z</time></trkpt>
<trkpt lat="46.21015000" lon="7.24856670"><ele></ele><time>2014-5-13T7:9:40Z</time></trkpt>
<trkpt lat="46.21146670" lon="7.24930000"><ele></ele><time>2014-5-13T7:9:43Z</time></trkpt>
<trkpt lat="46.21163330" lon="7.24970000"><ele></ele><time>2014-5-13T7:9:46Z</time></trkpt>
<trkpt lat="46.21221670" lon="7.24998330"><ele></ele><time>2014-5-13T7:9:49Z</time></trkpt>
<trkpt lat="46.21250000" lon="7.25038330"><ele></ele><time>2014-5-13T7:9:52Z</time></trkpt>
<trkpt lat="46.21350000" lon="7.25065000"><ele></ele><time>2014-5-13T7:9:55Z</time></trkpt>
<trkpt lat="46.21400000" lon="7.25001670"><ele></ele><time>2014-5-13T7:9:58Z</time></trkpt>
<trkpt lat="46.21426670" lon="7.24990000"><ele></ele><time>2014-5-13T7:10:1Z</time></trkpt>
<trkpt lat="46.21448330" lon="7.24940000"><ele></ele><time>2014-5-13T7:10:4Z</time></trkpt>
<trkpt lat="46.21481670" lon="7.24908330"><ele></ele><time>2014-5-13T7:10:7Z</time></trkpt>
<trkpt lat="46.21438330" lon="7.24813330"><ele></ele><time>2014-5-13T7:10:10Z</time></trkpt>
<trkpt lat="46.21493330" lon="7.24826670"><ele></ele><time>2014-5-13T7:10:13Z</time></trkpt>
<trkpt lat="46.21568330" lon="7.24805000"><ele></ele><time>2014-5-13T7:10:16Z</time></trkpt>
<trkpt lat="46.21593330" lon="7.24761670"><ele></ele><time>2014-5-13T7:10:19Z</time></trkpt>
<trkpt lat="46.21633330" lon="7.24738330"><ele></ele><time>2014-5-13T7:10:22Z</time></trkpt>
<trkpt lat="46.21753330" lon="7.24768330"><ele></ele><time>2014-5-13T7:10:25Z</time></trkpt>
<trkpt lat="46.21806670" lon="7.24745000"><ele></ele><time>2014-5-13T7:10:28Z</time></trkpt>
<trkpt lat="46.21991670" lon="7.24761670"><ele></ele><time>2014-5-13T7:10:31Z</time></trkpt>
<trkpt lat="46.22020000" lon="7.24648330"><ele></ele><time>2014-5-13T7:10:34Z</time></trkpt>
<trkpt lat="46.22086670" lon="7.24583330"><ele></ele><time>2014-5-13T7:10:37Z</time></trkpt>
<trkpt lat="46.22108330" lon="7.24520000"><ele></ele><time>2014-5-13T7:10:40Z</time></trkpt>
<trkpt lat="46.22170000" lon="7.24571670"><ele></ele><time>2014-5-13T7:10:43Z</time></trkpt>
<trkpt lat="46.22188330" lon="7.24551670"><ele></ele><time>2014-5-13T7:10:46Z</time></trkpt>
<trkpt lat="46.22225000" lon="7.24453330"><ele></ele><time>2014-5-13T7:10:49Z</time></trkpt>
<trkpt lat="46.22260000" lon="7.24436670"><ele></ele><time>2014-5-13T7:10:52Z</time></trkpt>
<trkpt lat="46.22336670" lon="7.24453330"><ele></ele><time>2014-5-13T7:10:55Z</time></trkpt>
<trkpt lat="46.22371670" lon="7.24406670"><ele></ele><time>2014-5-13T7:10:58Z</time></trkpt>
<trkpt lat="46.22393330" lon="7.24348330"><ele></ele><time>2014-5-13T7:11:1Z</time></trkpt>
<trkpt lat="46.22410000" lon="7.24343330"><ele></ele><time>2014-5-13T7:11:4Z</time></trkpt>
<trkpt lat="46.22438330" lon="7.24380000"><ele></ele><time>2014-5-13T7:11:7Z</time></trkpt>
<trkpt lat="46.22463330" lon="7.24513330"><ele></ele><time>2014-5-13T7:11:10Z</time></trkpt>
<trkpt lat="46.22485000" lon="7.24538330"><ele></ele><time>2014-5-13T7:11:13Z</time></trkpt>
<trkpt lat="46.22591670" lon="7.24616670"><ele></ele><time>2014-5-13T7:11:16Z</time></trkpt>
<trkpt lat="46.22780000" lon="7.24708330"><ele></ele><time>2014-5-13T7:11:19Z</time></trkpt>
<trkpt lat="46.22888330" lon="7.24695000"><ele></ele><time>2014-5-13T7:11:22Z</time></trkpt>
<trkpt lat="46.23006670" lon="7.24715000"><ele></ele><time>2014-5-13T7:11:25Z</time></trkpt>
<trkpt lat="46.23038330" lon="7.24738330"><ele></ele><time>2014-5-13T7:11:28Z</time></trkpt>
<trkpt lat="46.23118330" lon="7.24730000"><ele></ele><time>2014-5-13T7:11:31Z</time></trkpt>
<trkpt lat="46.23403330" lon="7.24818330"><ele></ele><time>2014-5-13T7:11:34Z</time></trkpt>
<trkpt lat="46.23475000" lon="7.24810000"><ele></ele><time>2014-5-13T7:11:37Z</time></trkpt>
<trkpt lat="46.23538330" lon="7.24830000"><ele></ele><time>2014-5-13T7:11:40Z</time></trkpt>
<trkpt lat="46.23733330" lon="7.24841670"><ele></ele><time>2014-5-13T7:11:43Z</time></trkpt>
<trkpt lat="46.23845000" lon="7.24813330"><ele></ele><time>2014-5-13T7:11:46Z</time></trkpt>
<trkpt lat="46.23950000" lon="7.24830000"><ele></ele><time>2014-5-13T7:11:49Z</time></trkpt>
<trkpt lat="46.24015000" lon="7.24805000"><ele></ele><time>2014-5-13T7:11:52Z</time></trkpt>
<trkpt lat="46.24110000" lon="7.24733330"><ele></ele><time>2014-5-13T7:11:55Z</time></trkpt>
<trkpt lat="46.24156670" lon="7.24618330"><ele></ele><time>2014-5-13T7:11:58Z</time></trkpt>
<trkpt lat="46.24231670" lon="7.24571670"><ele></ele><time>2014-5-13T7:12:1Z</time></trkpt>
<trkpt lat="46.24235000" lon="7.24511670"><ele></ele><time>2014-5-13T7:12:4Z</time></trkpt>
<trkpt lat="46.24246670" lon="7.24496670"><ele></ele><time>2014-5-13T7:12:7Z</time></trkpt>
<trkpt lat="46.24293330" lon="7.24501670"><ele></ele><time>2014-5-13T7:12:10Z</time></trkpt>
<trkpt lat="46.24298330" lon="7.24476670"><ele></ele><time>2014-5-13T7:12:13Z</time></trkpt>
<trkpt lat="46.24320000" lon="7.24481670"><ele></ele><time>2014-5-13T7:12:16Z</time></trkpt>
<trkpt lat="46.24283330" lon="7.24451670"><ele></ele><time>2014-5-13T7:12:19Z</time></trkpt>
<trkpt lat="46.24285000" lon="7.24421670"><ele></ele><time>2014-5-13T7:12:22Z</time></trkpt>
<trkpt lat="46.24325000" lon="7.24445000"><ele></ele><time>2014-5-13T7:12:25Z</time></trkpt>
<trkpt lat="46.24355000" lon="7.24425000"><ele></ele><time>2014-5-13T7:12:28Z</time></trkpt>
<trkpt lat="46.24375000" lon="7.24448330"><ele></ele><time>2014-5-13T7:12:31Z</time></trkpt>
<trkpt lat="46.24438330" lon="7.24440000"><ele></ele><time>2014-5-13T7:12:34Z</time></trkpt>
<trkpt lat="46.24470000" lon="7.24403330"><ele></ele><time>2014-5-13T7:12:37Z</time></trkpt>
<trkpt lat="46.24530000" lon="7.24430000"><ele></ele><time>2014-5-13T7:12:40Z</time></trkpt>
<trkpt lat="46.24658330" lon="7.24388330"><ele></ele><time>2014-5-13T7:12:43Z</time></trkpt>
<trkpt lat="46.24746670" lon="7.24321670"><ele></ele><time>2014-5-13T7:12:46Z</time></trkpt>
<trkpt lat="46.24796670" lon="7.24325000"><ele></ele><time>2014-5-13T7:12:49Z</time></trkpt>
<trkpt lat="46.24866670" lon="7.24280000"><ele></ele><time>2014-5-13T7:12:52Z</time></trkpt>
<trkpt lat="46.24915000" lon="7.24215000"><ele></ele><time>2014-5-13T7:12:55Z</time></trkpt>
<trkpt lat="46.24905000" lon="7.24170000"><ele></ele><time>2014-5-13T7:12:58Z</time></trkpt>
<trkpt lat="46.24955000" lon="7.24183330"><ele></ele><time>2014-5-13T7:13:1Z</time></trkpt>
<trkpt lat="46.24993330" lon="7.24148330"><ele></ele><time>2014-5-13T7:13:4Z</time></trkpt>
<trkpt lat="46.24995000" lon="7.24038330"><ele></ele><time>2014-5-13T7:13:7Z</time></trkpt>
<trkpt lat="46.25011670" lon="7.24023330"><ele></ele><time>2014-5-13T7:13:10Z</time></trkpt>
<trkpt lat="46.25088330" lon="7.24051670"><ele></ele><time>2014-5-13T7:13:13Z</time></trkpt>
<trkpt lat="46.25103330" lon="7.24041670"><ele></ele><time>2014-5-13T7:13:16Z</time></trkpt>
<trkpt lat="46.25143330" lon="7.23970000"><ele></ele><time>2014-5-13T7:13:19Z</time></trkpt>
<trkpt lat="46.25171670" lon="7.23850000"><ele></ele><time>2014-5-13T7:13:22Z</time></trkpt>
<trkpt lat="46.25218330" lon="7.23881670"><ele></ele><time>2014-5-13T7:13:25Z</time></trkpt>
<trkpt lat="46.25355000" lon="7.23888330"><ele></ele><time>2014-5-13T7:13:28Z</time></trkpt>
<trkpt lat="46.25365000" lon="7.23878330"><ele></ele><time>2014-5-13T7:13:31Z</time></trkpt>
<trkpt lat="46.25333330" lon="7.23770000"><ele></ele><time>2014-5-13T7:13:34Z</time></trkpt>
<trkpt lat="46.25433330" lon="7.23790000"><ele></ele><time>2014-5-13T7:13:37Z</time></trkpt>
<trkpt lat="46.25640000" lon="7.23635000"><ele></ele><time>2014-5-13T7:13:40Z</time></trkpt>
<trkpt lat="46.25718330" lon="7.23698330"><ele></ele><time>2014-5-13T7:13:43Z</time></trkpt>
<trkpt lat="46.25751670" lon="7.23680000"><ele></ele><time>2014-5-13T7:13:46Z</time></trkpt>
<trkpt lat="46.25800000" lon="7.23580000"><ele></ele><time>2014-5-13T7:13:49Z</time></trkpt>
<trkpt lat="46.25776670" lon="7.23586670"><ele></ele><time>2014-5-13T7:13:52Z</time></trkpt>
<trkpt lat="46.25766670" lon="7.23513330"><ele></ele><time>2014-5-13T7:13:55Z</time></trkpt>
<trkpt lat="46.25788330" lon="7.23500000"><ele></ele><time>2014-5-13T7:13:58Z</time></trkpt>
<trkpt lat="46.25811670" lon="7.23431670"><ele></ele><time>2014-5-13T7:14:1Z</time></trkpt>
<trkpt lat="46.25856670" lon="7.23506670"><ele></ele><time>2014-5-13T7:14:4Z</time></trkpt>
<trkpt lat="46.25900000" lon="7.23535000"><ele></ele><time>2014-5-13T7:14:7Z</time></trkpt>
<trkpt lat="46.26080000" lon="7.23565000"><ele></ele><time>2014-5-13T7:14:10Z</time></trkpt>
<trkpt lat="46.26105000" lon="7.23538330"><ele></ele><time>2014-5-13T7:14:13Z</time></trkpt>
<trkpt lat="46.26201670" lon="7.23608330"><ele></ele><time>2014-5-13T7:14:16Z</time></trkpt>
<trkpt lat="46.26465000" lon="7.23720000"><ele></ele><time>2014-5-13T7:14:19Z</time></trkpt>
<trkpt lat="46.26516670" lon="7.23701670"><ele></ele><time>2014-5-13T7:14:22Z</time></trkpt>
<trkpt lat="46.26573330" lon="7.23723330"><ele></ele><time>2014-5-13T7:14:25Z</time></trkpt>
<trkpt lat="46.26733330" lon="7.23708330"><ele></ele><time>2014-5-13T7:14:28Z</time></trkpt>
<trkpt lat="46.26778330" lon="7.23673330"><ele></ele><time>2014-5-13T7:14:31Z</time></trkpt>
<trkpt lat="46.26808330" lon="7.23683330"><ele></ele><time>2014-5-13T7:14:34Z</time></trkpt>
<trkpt lat="46.26871670" lon="7.23655000"><ele></ele><time>2014-5-13T7:14:37Z</time></trkpt>
<trkpt lat="46.26911670" lon="7.23616670"><ele></ele><time>2014-5-13T7:14:40Z</time></trkpt>
<trkpt lat="46.26918330" lon="7.23596670"><ele></ele><time>2014-5-13T7:14:43Z</time></trkpt>
<trkpt lat="46.26933330" lon="7.23610000"><ele></ele><time>2014-5-13T7:14:46Z</time></trkpt>
<trkpt lat="46.26945000" lon="7.23588330"><ele></ele><time>2014-5-13T7:14:49Z</time></trkpt>
<trkpt lat="46.26950000" lon="7.23605000"><ele></ele><time>2014-5-13T7:14:52Z</time></trkpt>
<trkpt lat="46.27091670" lon="7.23581670"><ele></ele><time>2014-5-13T7:14:55Z</time></trkpt>
<trkpt lat="46.27106670" lon="7.23603330"><ele></ele><time>2014-5-13T7:14:58Z</time></trkpt>
<trkpt lat="46.27148330" lon="7.23610000"><ele></ele><time>2014-5-13T7:15:1Z</time></trkpt>
<trkpt lat="46.27218330" lon="7.23588330"><ele></ele><time>2014-5-13T7:15:4Z</time></trkpt>
<trkpt lat="46.27246670" lon="7.23553330"><ele></ele><time>2014-5-13T7:15:7Z</time></trkpt>
<trkpt lat="46.27320000" lon="7.23575000"><ele></ele><time>2014-5-13T7:15:10Z</time></trkpt>
<trkpt lat="46.27386670" lon="7.23513330"><ele></ele><time>2014-5-13T7:15:13Z</time></trkpt>
<trkpt lat="46.27530000" lon="7.23470000"><ele></ele><time>2014-5-13T7:15:16Z</time></trkpt>
<trkpt lat="46.27546670" lon="7.23538330"><ele></ele><time>2014-5-13T7:15:19Z</time></trkpt>
<trkpt lat="46.27566670" lon="7.23551670"><ele></ele><time>2014-5-13T7:15:22Z</time></trkpt>
<trkpt lat="46.27613330" lon="7.23535000"><ele></ele><time>2014-5-13T7:15:25Z</time></trkpt>
<trkpt lat="46.27678330" lon="7.23436670"><ele></ele><time>2014-5-13T7:15:28Z</time></trkpt>
<trkpt lat="46.27756670" lon="7.23410000"><ele></ele><time>2014-5-13T7:15:31Z</time></trkpt>
<trkpt lat="46.27843330" lon="7.23351670"><ele></ele><time>2014-5-13T7:15:34Z</time></trkpt>
<trkpt lat="46.27901670" lon="7.23380000"><ele></ele><time>2014-5-13T7:15:37Z</time></trkpt>
<trkpt lat="46.27931670" lon="7.23456670"><ele></ele><time>2014-5-13T7:15:40Z</time></trkpt>
<trkpt lat="46.27998330" lon="7.23305000"><ele></ele><time>2014-5-13T7:15:43Z</time></trkpt>
<trkpt lat="46.28036670" lon="7.23260000"><ele></ele><time>2014-5-13T7:15:46Z</time></trkpt>
<trkpt lat="46.28111670" lon="7.23210000"><ele></ele><time>2014-5-13T7:15:49Z</time></trkpt>
<trkpt lat="46.28158330" lon="7.23148330"><ele></ele><time>2014-5-13T7:15:52Z</time></trkpt>
<trkpt lat="46.28345000" lon="7.23060000"><ele></ele><time>2014-5-13T7:15:55Z</time></trkpt>
<trkpt lat="46.28376670" lon="7.23060000"><ele></ele><time>2014-5-13T7:15:58Z</time></trkpt>
<trkpt lat="46.28525000" lon="7.23223330"><ele></ele><time>2014-5-13T7:16:1Z</time></trkpt>
<trkpt lat="46.28548330" lon="7.23215000"><ele></ele><time>2014-5-13T7:16:4Z</time></trkpt>
<trkpt lat="46.28560000" lon="7.23113330"><ele></ele><time>2014-5-13T7:16:7Z</time></trkpt>
<trkpt lat="46.28510000" lon="7.22788330"><ele></ele><time>2014-5-13T7:16:10Z</time></trkpt>
<trkpt lat="46.28591670" lon="7.22430000"><ele></ele><time>2014-5-13T7:16:13Z</time></trkpt>
<trkpt lat="46.28546670" lon="7.22468330"><ele></ele><time>2014-5-13T7:16:16Z</time></trkpt>
<trkpt lat="46.28468330" lon="7.22421670"><ele></ele><time>2014-5-13T7:16:19Z</time></trkpt>
<trkpt lat="46.28416670" lon="7.22438330"><ele></ele><time>2014-5-13T7:16:22Z</time></trkpt>
<trkpt lat="46.28293330" lon="7.22335000"><ele></ele><time>2014-5-13T7:16:25Z</time></trkpt>
<trkpt lat="46.28283330" lon="7.22265000"><ele></ele><time>2014-5-13T7:16:28Z</time></trkpt>
<trkpt lat="46.28296670" lon="7.22168330"><ele></ele><time>2014-5-13T7:16:31Z</time></trkpt>
<trkpt lat="46.28271670" lon="7.21943330"><ele></ele><time>2014-5-13T7:16:34Z</time></trkpt>
<trkpt lat="46.28283330" lon="7.21840000"><ele></ele><time>2014-5-13T7:16:37Z</time></trkpt>
<trkpt lat="46.28006670" lon="7.21505000"><ele></ele><time>2014-5-13T7:16:40Z</time></trkpt>
<trkpt lat="46.27976670" lon="7.21545000"><ele></ele><time>2014-5-13T7:16:43Z</time></trkpt>
<trkpt lat="46.28031670" lon="7.21523330"><ele></ele><time>2014-5-13T7:16:46Z</time></trkpt>
<trkpt lat="46.28233330" lon="7.21768330"><ele></ele><time>2014-5-13T7:16:49Z</time></trkpt>
<trkpt lat="46.28286670" lon="7.21850000"><ele></ele><time>2014-5-13T7:16:52Z</time></trkpt>
<trkpt lat="46.28275000" lon="7.21948330"><ele></ele><time>2014-5-13T7:16:55Z</time></trkpt>
<trkpt lat="46.28298330" lon="7.22180000"><ele></ele><time>2014-5-13T7:16:58Z</time></trkpt>
<trkpt lat="46.28291670" lon="7.22313330"><ele></ele><time>2014-5-13T7:17:1Z</time></trkpt>
<trkpt lat="46.28425000" lon="7.22438330"><ele></ele><time>2014-5-13T7:17:4Z</time></trkpt>
<trkpt lat="46.28493330" lon="7.22418330"><ele></ele><time>2014-5-13T7:17:7Z</time></trkpt>
<trkpt lat="46.28538330" lon="7.22458330"><ele></ele><time>2014-5-13T7:17:10Z</time></trkpt>
<trkpt lat="46.28573330" lon="7.22448330"><ele></ele><time>2014-5-13T7:17:13Z</time></trkpt>
<trkpt lat="46.28590000" lon="7.22418330"><ele></ele><time>2014-5-13T7:17:16Z</time></trkpt>
<trkpt lat="46.28595000" lon="7.22441670"><ele></ele><time>2014-5-13T7:17:19Z</time></trkpt>
<trkpt lat="46.28513330" lon="7.22768330"><ele></ele><time>2014-5-13T7:17:22Z</time></trkpt>
<trkpt lat="46.28565000" lon="7.23163330"><ele></ele><time>2014-5-13T7:17:25Z</time></trkpt>
<trkpt lat="46.28540000" lon="7.23221670"><ele></ele><time>2014-5-13T7:17:28Z</time></trkpt>
<trkpt lat="46.28371670" lon="7.23058330"><ele></ele><time>2014-5-13T7:17:31Z</time></trkpt>
<trkpt lat="46.28331670" lon="7.23063330"><ele></ele><time>2014-5-13T7:17:34Z</time></trkpt>
<trkpt lat="46.28176670" lon="7.23135000"><ele></ele><time>2014-5-13T7:17:37Z</time></trkpt>
<trkpt lat="46.28088330" lon="7.23225000"><ele></ele><time>2014-5-13T7:17:40Z</time></trkpt>
<trkpt lat="46.28021670" lon="7.23265000"><ele></ele><time>2014-5-13T7:17:43Z</time></trkpt>
<trkpt lat="46.27965000" lon="7.23341670"><ele></ele><time>2014-5-13T7:17:46Z</time></trkpt>
<trkpt lat="46.27948330" lon="7.23415000"><ele></ele><time>2014-5-13T7:17:49Z</time></trkpt>
<trkpt lat="46.27923330" lon="7.23436670"><ele></ele><time>2014-5-13T7:17:52Z</time></trkpt>
<trkpt lat="46.27881670" lon="7.23416670"><ele></ele><time>2014-5-13T7:17:55Z</time></trkpt>
<trkpt lat="46.27860000" lon="7.23348330"><ele></ele><time>2014-5-13T7:17:58Z</time></trkpt>
<trkpt lat="46.27826670" lon="7.23343330"><ele></ele><time>2014-5-13T7:18:1Z</time></trkpt>
<trkpt lat="46.27748330" lon="7.23393330"><ele></ele><time>2014-5-13T7:18:4Z</time></trkpt>
<trkpt lat="46.27635000" lon="7.23430000"><ele></ele><time>2014-5-13T7:18:7Z</time></trkpt>
<trkpt lat="46.27565000" lon="7.23515000"><ele></ele><time>2014-5-13T7:18:10Z</time></trkpt>
<trkpt lat="46.27535000" lon="7.23526670"><ele></ele><time>2014-5-13T7:18:13Z</time></trkpt>
<trkpt lat="46.27513330" lon="7.23491670"><ele></ele><time>2014-5-13T7:18:16Z</time></trkpt>
<trkpt lat="46.27468330" lon="7.23491670"><ele></ele><time>2014-5-13T7:18:19Z</time></trkpt>
<trkpt lat="46.27426670" lon="7.23518330"><ele></ele><time>2014-5-13T7:18:22Z</time></trkpt>
<trkpt lat="46.27413330" lon="7.23528330"><ele></ele><time>2014-5-13T7:18:25Z</time></trkpt>
<trkpt lat="46.27405000" lon="7.23583330"><ele></ele><time>2014-5-13T7:18:28Z</time></trkpt>
<trkpt lat="46.27431670" lon="7.23723330"><ele></ele><time>2014-5-13T7:18:31Z</time></trkpt>
<trkpt lat="46.27413330" lon="7.23773330"><ele></ele><time>2014-5-13T7:18:34Z</time></trkpt>
<trkpt lat="46.27336670" lon="7.23870000"><ele></ele><time>2014-5-13T7:18:37Z</time></trkpt>
<trkpt lat="46.27276670" lon="7.23878330"><ele></ele><time>2014-5-13T7:18:40Z</time></trkpt>
<trkpt lat="46.27211670" lon="7.23941670"><ele></ele><time>2014-5-13T7:18:43Z</time></trkpt>
<trkpt lat="46.27140000" lon="7.23925000"><ele></ele><time>2014-5-13T7:18:46Z</time></trkpt>
<trkpt lat="46.27110000" lon="7.23941670"><ele></ele><time>2014-5-13T7:18:49Z</time></trkpt>
<trkpt lat="46.27101670" lon="7.23981670"><ele></ele><time>2014-5-13T7:18:52Z</time></trkpt>
<trkpt lat="46.27111670" lon="7.24073330"><ele></ele><time>2014-5-13T7:18:55Z</time></trkpt>
<trkpt lat="46.27003330" lon="7.24186670"><ele></ele><time>2014-5-13T7:18:58Z</time></trkpt>
<trkpt lat="46.26983330" lon="7.24236670"><ele></ele><time>2014-5-13T7:19:1Z</time></trkpt>
<trkpt lat="46.26926670" lon="7.24276670"><ele></ele><time>2014-5-13T7:19:4Z</time></trkpt>
<trkpt lat="46.26888330" lon="7.24348330"><ele></ele><time>2014-5-13T7:19:7Z</time></trkpt>
<trkpt lat="46.26845000" lon="7.24396670"><ele></ele><time>2014-5-13T7:19:10Z</time></trkpt>
<trkpt lat="46.26808330" lon="7.24415000"><ele></ele><time>2014-5-13T7:19:13Z</time></trkpt>
<trkpt lat="46.26755000" lon="7.24403330"><ele></ele><time>2014-5-13T7:19:16Z</time></trkpt>
<trkpt lat="46.26731670" lon="7.24453330"><ele></ele><time>2014-5-13T7:19:19Z</time></trkpt>
<trkpt lat="46.26561670" lon="7.24556670"><ele></ele><time>2014-5-13T7:19:22Z</time></trkpt>
<trkpt lat="46.26486670" lon="7.24513330"><ele></ele><time>2014-5-13T7:19:25Z</time></trkpt>
<trkpt lat="46.26396670" lon="7.24513330"><ele></ele><time>2014-5-13T7:19:28Z</time></trkpt>
<trkpt lat="46.26351670" lon="7.24536670"><ele></ele><time>2014-5-13T7:19:31Z</time></trkpt>
<trkpt lat="46.26236670" lon="7.24521670"><ele></ele><time>2014-5-13T7:19:34Z</time></trkpt>
<trkpt lat="46.26158330" lon="7.24500000"><ele></ele><time>2014-5-13T7:19:37Z</time></trkpt>
<trkpt lat="46.26100000" lon="7.24423330"><ele></ele><time>2014-5-13T7:19:40Z</time></trkpt>
<trkpt lat="46.26081670" lon="7.24411670"><ele></ele><time>2014-5-13T7:19:43Z</time></trkpt>
<trkpt lat="46.25993330" lon="7.24433330"><ele></ele><time>2014-5-13T7:19:46Z</time></trkpt>
<trkpt lat="46.25858330" lon="7.24441670"><ele></ele><time>2014-5-13T7:19:49Z</time></trkpt>
<trkpt lat="46.25828330" lon="7.24486670"><ele></ele><time>2014-5-13T7:19:52Z</time></trkpt>
<trkpt lat="46.25820000" lon="7.24568330"><ele></ele><time>2014-5-13T7:19:55Z</time></trkpt>
<trkpt lat="46.25695000" lon="7.24695000"><ele></ele><time>2014-5-13T7:19:58Z</time></trkpt>
<trkpt lat="46.25550000" lon="7.24730000"><ele></ele><time>2014-5-13T7:20:1Z</time></trkpt>
<trkpt lat="46.25515000" lon="7.24768330"><ele></ele><time>2014-5-13T7:20:4Z</time></trkpt>
<trkpt lat="46.25433330" lon="7.24768330"><ele></ele><time>2014-5-13T7:20:7Z</time></trkpt>
<trkpt lat="46.25225000" lon="7.24885000"><ele></ele><time>2014-5-13T7:20:10Z</time></trkpt>
<trkpt lat="46.24918330" lon="7.25101670"><ele></ele><time>2014-5-13T7:20:13Z</time></trkpt>
<trkpt lat="46.24895000" lon="7.25118330"><ele></ele><time>2014-5-13T7:20:16Z</time></trkpt>
<trkpt lat="46.24940000" lon="7.25260000"><ele></ele><time>2014-5-13T7:20:19Z</time></trkpt>
<trkpt lat="46.24918330" lon="7.25300000"><ele></ele><time>2014-5-13T7:20:22Z</time></trkpt>
<trkpt lat="46.24821670" lon="7.25393330"><ele></ele><time>2014-5-13T7:20:25Z</time></trkpt>
<trkpt lat="46.24753330" lon="7.25386670"><ele></ele><time>2014-5-13T7:20:28Z</time></trkpt>
<trkpt lat="46.24708330" lon="7.25425000"><ele></ele><time>2014-5-13T7:20:31Z</time></trkpt>
<trkpt lat="46.24663330" lon="7.25526670"><ele></ele><time>2014-5-13T7:20:34Z</time></trkpt>
<trkpt lat="46.24635000" lon="7.25505000"><ele></ele><time>2014-5-13T7:20:37Z</time></trkpt>
<trkpt lat="46.24596670" lon="7.25438330"><ele></ele><time>2014-5-13T7:20:40Z</time></trkpt>
<trkpt lat="46.24505000" lon="7.25460000"><ele></ele><time>2014-5-13T7:20:43Z</time></trkpt>
<trkpt lat="46.24383330" lon="7.25653330"><ele></ele><time>2014-5-13T7:20:46Z</time></trkpt>
<trkpt lat="46.24371670" lon="7.25768330"><ele></ele><time>2014-5-13T7:20:49Z</time></trkpt>
<trkpt lat="46.24341670" lon="7.25788330"><ele></ele><time>2014-5-13T7:20:52Z</time></trkpt>
<trkpt lat="46.24200000" lon="7.25758330"><ele></ele><time>2014-5-13T7:20:55Z</time></trkpt>
<trkpt lat="46.24133330" lon="7.25835000"><ele></ele><time>2014-5-13T7:20:58Z</time></trkpt>
<trkpt lat="46.24045000" lon="7.25900000"><ele></ele><time>2014-5-13T7:21:1Z</time></trkpt>
<trkpt lat="46.23900000" lon="7.25965000"><ele></ele><time>2014-5-13T7:21:4Z</time></trkpt>
<trkpt lat="46.23798330" lon="7.25923330"><ele></ele><time>2014-5-13T7:21:7Z</time></trkpt>
<trkpt lat="46.23571670" lon="7.25900000"><ele></ele><time>2014-5-13T7:21:10Z</time></trkpt>
<trkpt lat="46.23536670" lon="7.25875000"><ele></ele><time>2014-5-13T7:21:13Z</time></trkpt>
<trkpt lat="46.23463330" lon="7.25901670"><ele></ele><time>2014-5-13T7:21:16Z</time></trkpt>
<trkpt lat="46.23356670" lon="7.25825000"><ele></ele><time>2014-5-13T7:21:19Z</time></trkpt>
<trkpt lat="46.23313330" lon="7.25815000"><ele></ele><time>2014-5-13T7:21:22Z</time></trkpt>
<trkpt lat="46.23236670" lon="7.25836670"><ele></ele><time>2014-5-13T7:21:25Z</time></trkpt>
<trkpt lat="46.23210000" lon="7.25878330"><ele></ele><time>2014-5-13T7:21:28Z</time></trkpt>
<trkpt lat="46.23096670" lon="7.25890000"><ele></ele><time>2014-5-13T7:21:31Z</time></trkpt>
<trkpt lat="46.23088330" lon="7.25940000"><ele></ele><time>2014-5-13T7:21:34Z</time></trkpt>
<trkpt lat="46.23123330" lon="7.26050000"><ele></ele><time>2014-5-13T7:21:37Z</time></trkpt>
<trkpt lat="46.23200000" lon="7.26201670"><ele></ele><time>2014-5-13T7:21:40Z</time></trkpt>
<trkpt lat="46.23303330" lon="7.26348330"><ele></ele><time>2014-5-13T7:21:43Z</time></trkpt>
<trkpt lat="46.23378330" lon="7.26418330"><ele></ele><time>2014-5-13T7:21:46Z</time></trkpt>
<trkpt lat="46.23440000" lon="7.26511670"><ele></ele><time>2014-5-13T7:21:49Z</time></trkpt>
<trkpt lat="46.23588330" lon="7.26855000"><ele></ele><time>2014-5-13T7:21:52Z</time></trkpt>
<trkpt lat="46.23670000" lon="7.27000000"><ele></ele><time>2014-5-13T7:21:55Z</time></trkpt>
<trkpt lat="46.23686670" lon="7.27041670"><ele></ele><time>2014-5-13T7:21:58Z</time></trkpt>
<trkpt lat="46.23685000" lon="7.27101670"><ele></ele><time>2014-5-13T7:22:1Z</time></trkpt>
<trkpt lat="46.23641670" lon="7.27133330"><ele></ele><time>2014-5-13T7:22:4Z</time></trkpt>
<trkpt lat="46.23603330" lon="7.27075000"><ele></ele><time>2014-5-13T7:22:7Z</time></trkpt>
<trkpt lat="46.23541670" lon="7.27010000"><ele></ele><time>2014-5-13T7:22:10Z</time></trkpt>
<trkpt lat="46.23446670" lon="7.26960000"><ele></ele><time>2014-5-13T7:22:13Z</time></trkpt>
<trkpt lat="46.23376670" lon="7.26895000"><ele></ele><time>2014-5-13T7:22:16Z</time></trkpt>
<trkpt lat="46.23285000" lon="7.26761670"><ele></ele><time>2014-5-13T7:22:19Z</time></trkpt>
<trkpt lat="46.23223330" lon="7.26708330"><ele></ele><time>2014-5-13T7:22:22Z</time></trkpt>
<trkpt lat="46.23133330" lon="7.26573330"><ele></ele><time>2014-5-13T7:22:25Z</time></trkpt>
<trkpt lat="46.23156670" lon="7.26740000"><ele></ele><time>2014-5-13T7:22:28Z</time></trkpt>
<trkpt lat="46.23155000" lon="7.26893330"><ele></ele><time>2014-5-13T7:22:31Z</time></trkpt>
<trkpt lat="46.23133330" lon="7.26903330"><ele></ele><time>2014-5-13T7:22:34Z</time></trkpt>
<trkpt lat="46.23030000" lon="7.26670000"><ele></ele><time>2014-5-13T7:22:37Z</time></trkpt>
<trkpt lat="46.22986670" lon="7.26620000"><ele></ele><time>2014-5-13T7:22:40Z</time></trkpt>
<trkpt lat="46.22965000" lon="7.26666670"><ele></ele><time>2014-5-13T7:22:43Z</time></trkpt>
<trkpt lat="46.22925000" lon="7.26625000"><ele></ele><time>2014-5-13T7:22:46Z</time></trkpt>
<trkpt lat="46.22911670" lon="7.26658330"><ele></ele><time>2014-5-13T7:22:49Z</time></trkpt>
<trkpt lat="46.22893330" lon="7.26641670"><ele></ele><time>2014-5-13T7:22:52Z</time></trkpt>
<trkpt lat="46.22878330" lon="7.26598330"><ele></ele><time>2014-5-13T7:22:55Z</time></trkpt>
<trkpt lat="46.22841670" lon="7.26583330"><ele></ele><time>2014-5-13T7:22:58Z</time></trkpt>
<trkpt lat="46.22790000" lon="7.26438330"><ele></ele><time>2014-5-13T7:23:1Z</time></trkpt>
<trkpt lat="46.22758330" lon="7.26396670"><ele></ele><time>2014-5-13T7:23:4Z</time></trkpt>
<trkpt lat="46.22655000" lon="7.26351670"><ele></ele><time>2014-5-13T7:23:7Z</time></trkpt>
<trkpt lat="46.22571670" lon="7.26268330"><ele></ele><time>2014-5-13T7:23:10Z</time></trkpt>
<trkpt lat="46.22521670" lon="7.26200000"><ele></ele><time>2014-5-13T7:23:13Z</time></trkpt>
<trkpt lat="46.22388330" lon="7.26131670"><ele></ele><time>2014-5-13T7:23:16Z</time></trkpt>
<trkpt lat="46.22310000" lon="7.26030000"><ele></ele><time>2014-5-13T7:23:19Z</time></trkpt>
<trkpt lat="46.22185000" lon="7.25933330"><ele></ele><time>2014-5-13T7:23:22Z</time></trkpt>
<trkpt lat="46.22131670" lon="7.25965000"><ele></ele><time>2014-5-13T7:23:25Z</time></trkpt>
<trkpt lat="46.22215000" lon="7.26120000"><ele></ele><time>2014-5-13T7:23:28Z</time></trkpt>
<trkpt lat="46.22186670" lon="7.26161670"><ele></ele><time>2014-5-13T7:23:31Z</time></trkpt>
<trkpt lat="46.22111670" lon="7.26173330"><ele></ele><time>2014-5-13T7:23:34Z</time></trkpt>
<trkpt lat="46.22148330" lon="7.26238330"><ele></ele><time>2014-5-13T7:23:37Z</time></trkpt>
<trkpt lat="46.22276670" lon="7.26343330"><ele></ele><time>2014-5-13T7:23:40Z</time></trkpt>
<trkpt lat="46.22395000" lon="7.26543330"><ele></ele><time>2014-5-13T7:23:43Z</time></trkpt>
<trkpt lat="46.22410000" lon="7.26611670"><ele></ele><time>2014-5-13T7:23:46Z</time></trkpt>
<trkpt lat="46.22391670" lon="7.26631670"><ele></ele><time>2014-5-13T7:23:49Z</time></trkpt>
<trkpt lat="46.22348330" lon="7.26603330"><ele></ele><time>2014-5-13T7:23:52Z</time></trkpt>
<trkpt lat="46.22328330" lon="7.26633330"><ele></ele><time>2014-5-13T7:23:55Z</time></trkpt>
<trkpt lat="46.22348330" lon="7.26701670"><ele></ele><time>2014-5-13T7:23:58Z</time></trkpt>
<trkpt lat="46.22405000" lon="7.26818330"><ele></ele><time>2014-5-13T7:24:1Z</time></trkpt>
<trkpt lat="46.22470000" lon="7.27058330"><ele></ele><time>2014-5-13T7:24:4Z</time></trkpt>
<trkpt lat="46.22380000" lon="7.26991670"><ele></ele><time>2014-5-13T7:24:7Z</time></trkpt>
<trkpt lat="46.22318330" lon="7.26923330"><ele></ele><time>2014-5-13T7:24:10Z</time></trkpt>
<trkpt lat="46.22258330" lon="7.26783330"><ele></ele><time>2014-5-13T7:24:13Z</time></trkpt>
<trkpt lat="46.22215000" lon="7.26745000"><ele></ele><time>2014-5-13T7:24:16Z</time></trkpt>
<trkpt lat="46.22180000" lon="7.26740000"><ele></ele><time>2014-5-13T7:24:19Z</time></trkpt>
<trkpt lat="46.21981670" lon="7.26885000"><ele></ele><time>2014-5-13T7:24:22Z</time></trkpt>
<trkpt lat="46.21891670" lon="7.27013330"><ele></ele><time>2014-5-13T7:24:25Z</time></trkpt>
<trkpt lat="46.21828330" lon="7.27073330"><ele></ele><time>2014-5-13T7:24:28Z</time></trkpt>
<trkpt lat="46.21800000" lon="7.27065000"><ele></ele><time>2014-5-13T7:24:31Z</time></trkpt>
<trkpt lat="46.21533330" lon="7.26643330"><ele></ele><time>2014-5-13T7:24:34Z</time></trkpt>
<trkpt lat="46.21508330" lon="7.26576670"><ele></ele><time>2014-5-13T7:24:37Z</time></trkpt>
<trkpt lat="46.21560000" lon="7.26561670"><ele></ele><time>2014-5-13T7:24:40Z</time></trkpt>
<trkpt lat="46.21558330" lon="7.26543330"><ele></ele><time>2014-5-13T7:24:43Z</time></trkpt>
<trkpt lat="46.21460000" lon="7.26371670"><ele></ele><time>2014-5-13T7:24:46Z</time></trkpt>
<trkpt lat="46.21415000" lon="7.26306670"><ele></ele><time>2014-5-13T7:24:49Z</time></trkpt>
<trkpt lat="46.21385000" lon="7.26285000"><ele></ele><time>2014-5-13T7:24:52Z</time></trkpt>
<trkpt lat="46.21378330" lon="7.26263330"><ele></ele><time>2014-5-13T7:24:55Z</time></trkpt>
<trkpt lat="46.21340000" lon="7.26356670"><ele></ele><time>2014-5-13T7:24:58Z</time></trkpt>
<trkpt lat="46.21066670" lon="7.25990000"><ele></ele><time>2014-5-13T7:25:1Z</time></trkpt>
<trkpt lat="46.20961670" lon="7.25785000"><ele></ele><time>2014-5-13T7:25:4Z</time></trkpt>
<trkpt lat="46.21000000" lon="7.25628330"><ele></ele><time>2014-5-13T7:25:7Z</time></trkpt>
</trkseg></trk></gpx>